Time;durP1;ratioP1;P1;durP2;ratioP2;P2;SDS_P1;SDS_P2;PMS_P1;PMS_P2;Temp;Humidity;BMP_temperature;BMP_pressure;BME280_temperature;BME280_humidity;BME280_pressure;Samples;Min_cycle;Max_cycle;Signal;HPM_P1;HPM_P2
2023/04/24 00:00:22;;;;;;;0.97;0.67;;;21.70;72.40;;;;;;4937381;29;20443;-86
2023/04/24 00:02:50;;;;;;;1.10;0.90;;;21.60;72.20;;;;;;4937032;29;20487;-87
2023/04/24 00:05:17;;;;;;;1.73;0.83;;;21.60;72.30;;;;;;4937212;29;20953;-86
2023/04/24 00:07:45;;;;;;;0.90;0.60;;;21.60;72.20;;;;;;4936754;29;20467;-87
2023/04/24 00:10:13;;;;;;;1.00;0.70;;;21.60;72.30;;;;;;4936932;29;20454;-87
2023/04/24 00:12:40;;;;;;;1.10;0.70;;;21.60;72.20;;;;;;4936948;29;20462;-87
2023/04/24 00:15:09;;;;;;;1.17;0.87;;;21.60;72.30;;;;;;4919874;29;20510;-86
2023/04/24 00:17:35;;;;;;;1.73;0.80;;;21.60;72.30;;;;;;4936885;29;20538;-87
2023/04/24 00:20:04;;;;;;;1.10;0.80;;;21.70;72.30;;;;;;4936906;29;20443;-86
2023/04/24 00:22:32;;;;;;;4.57;0.77;;;21.60;72.30;;;;;;4919666;29;20451;-86
2023/04/24 00:24:59;;;;;;;1.00;0.70;;;21.60;72.30;;;;;;4936824;29;20443;-86
2023/04/24 00:27:28;;;;;;;1.00;0.83;;;21.60;72.20;;;;;;4936895;29;20446;-87
2023/04/24 00:29:54;;;;;;;1.00;0.77;;;21.60;72.20;;;;;;4936551;29;20500;-86
2023/04/24 00:32:21;;;;;;;1.00;0.70;;;21.60;72.30;;;;;;4936699;29;20967;-87
2023/04/24 00:34:48;;;;;;;1.10;0.70;;;21.60;72.20;;;;;;4936743;29;20458;-87
2023/04/24 00:37:15;;;;;;;0.90;0.60;;;21.60;72.20;;;;;;4936487;29;20959;-87
2023/04/24 00:39:42;;;;;;;1.00;0.70;;;21.60;72.20;;;;;;4919863;29;20454;-87
2023/04/24 00:42:09;;;;;;;0.90;0.60;;;21.60;72.20;;;;;;4919731;29;20449;-87
2023/04/24 00:44:38;;;;;;;1.77;0.73;;;21.60;72.10;;;;;;4936428;29;20777;-86
2023/04/24 00:47:05;;;;;;;1.10;0.70;;;21.70;72.20;;;;;;4936521;29;20455;-88
2023/04/24 00:49:32;;;;;;;1.00;0.70;;;21.60;72.20;;;;;;4936367;29;20501;-86
2023/04/24 00:51:59;;;;;;;1.07;0.80;;;21.60;72.10;;;;;;4936443;29;20458;-86
2023/04/24 00:54:26;;;;;;;1.00;0.90;;;21.60;72.10;;;;;;4903920;29;20477;-86
2023/04/24 00:56:53;;;;;;;1.00;0.70;;;21.60;72.00;;;;;;4936338;29;20447;-87
2023/04/24 00:59:20;;;;;;;1.10;0.73;;;21.60;72.10;;;;;;4936370;29;20803;-87
2023/04/24 01:01:48;;;;;;;1.00;0.70;;;21.60;72.10;;;;;;4936199;29;20464;-86
2023/04/24 01:04:15;;;;;;;1.97;0.93;;;21.60;72.00;;;;;;4936019;29;20570;-87
2023/04/24 01:06:44;;;;;;;1.00;0.87;;;21.50;71.90;;;;;;4936166;29;20442;-86
2023/04/24 01:09:12;;;;;;;1.10;0.90;;;21.60;72.10;;;;;;4935754;29;20526;-86
2023/04/24 01:11:41;;;;;;;1.10;0.70;;;21.50;72.00;;;;;;4936103;29;20459;-86
2023/04/24 01:14:08;;;;;;;1.10;0.80;;;21.60;72.00;;;;;;4936103;29;20450;-87
2023/04/24 01:16:35;;;;;;;1.10;0.73;;;21.50;71.80;;;;;;4936268;29;20452;-87
2023/04/24 01:19:04;;;;;;;3.17;0.87;;;21.50;71.90;;;;;;4936125;29;20449;-87
2023/04/24 01:21:35;;;;;;;1.00;0.70;;;21.60;72.00;;;;;;4935943;29;20443;-87
2023/04/24 01:24:04;;;;;;;1.00;0.70;;;21.50;71.90;;;;;;4918973;29;20435;-86
2023/04/24 01:26:31;;;;;;;1.10;0.77;;;21.50;71.80;;;;;;4935936;29;20497;-86
2023/04/24 01:28:58;;;;;;;1.07;0.80;;;21.70;72.00;;;;;;4935832;29;20502;-86
2023/04/24 01:31:25;;;;;;;1.10;0.70;;;21.50;71.90;;;;;;4935864;29;20446;-87
2023/04/24 01:33:52;;;;;;;1.03;0.70;;;21.50;71.90;;;;;;4936094;29;20445;-87
2023/04/24 01:36:20;;;;;;;1.50;0.80;;;21.50;71.90;;;;;;4922419;29;20443;-87
2023/04/24 01:38:46;;;;;;;1.00;0.80;;;21.50;71.80;;;;;;4939842;29;20466;-87
2023/04/24 01:41:15;;;;;;;1.10;0.90;;;21.50;71.80;;;;;;4939565;29;20450;-87
2023/04/24 01:43:42;;;;;;;0.97;0.70;;;21.50;71.80;;;;;;4938993;29;20447;-87
2023/04/24 01:46:09;;;;;;;1.10;0.70;;;21.50;71.90;;;;;;4922787;29;20439;-87
2023/04/24 01:48:36;;;;;;;1.00;0.80;;;21.50;71.80;;;;;;4906846;29;20479;-86
2023/04/24 01:51:04;;;;;;;1.00;0.80;;;21.50;71.80;;;;;;4939614;29;20956;-89
2023/04/24 01:53:31;;;;;;;1.00;0.80;;;21.40;71.70;;;;;;4939495;29;20457;-87
2023/04/24 01:55:58;;;;;;;1.00;0.77;;;21.50;71.80;;;;;;4939493;29;20819;-87
2023/04/24 01:58:27;;;;;;;1.10;0.77;;;21.50;71.80;;;;;;4939549;29;20450;-87
2023/04/24 02:00:56;;;;;;;1.20;0.97;;;21.50;71.80;;;;;;4939359;29;20443;-87
2023/04/24 02:03:23;;;;;;;1.00;0.70;;;21.40;71.70;;;;;;4939222;29;20983;-89
2023/04/24 02:05:50;;;;;;;1.00;0.60;;;21.40;71.70;;;;;;4939291;29;20442;-87
2023/04/24 02:08:17;;;;;;;1.00;0.80;;;21.40;71.90;;;;;;4922015;29;20522;-87
2023/04/24 02:10:44;;;;;;;1.00;0.70;;;21.40;72.80;;;;;;4939231;29;21009;-87
2023/04/24 02:13:11;;;;;;;1.00;0.70;;;21.40;71.80;;;;;;4922473;29;20446;-87
2023/04/24 02:15:39;;;;;;;1.00;0.80;;;21.40;71.90;;;;;;4939257;29;20442;-87
2023/04/24 02:18:06;;;;;;;1.10;0.80;;;21.40;71.90;;;;;;4939102;29;20435;-87
2023/04/24 02:20:35;;;;;;;1.00;0.70;;;21.40;71.80;;;;;;4938913;29;20809;-87
2023/04/24 02:23:02;;;;;;;1.00;0.70;;;21.40;71.90;;;;;;4939159;29;20447;-87
2023/04/24 02:25:28;;;;;;;1.00;0.70;;;21.40;71.90;;;;;;4938962;29;20454;-87
2023/04/24 02:27:55;;;;;;;1.10;0.80;;;21.40;71.90;;;;;;4938741;29;20450;-86
2023/04/24 02:30:22;;;;;;;1.10;0.90;;;21.40;71.90;;;;;;4938885;29;20541;-87
2023/04/24 02:32:51;;;;;;;1.10;0.83;;;21.40;71.90;;;;;;4938857;29;20462;-87
2023/04/24 02:35:17;;;;;;;0.97;0.70;;;21.40;71.90;;;;;;4938876;29;20483;-86
2023/04/24 02:37:44;;;;;;;1.00;0.70;;;21.40;71.90;;;;;;4938681;29;20467;-87
2023/04/24 02:40:11;;;;;;;1.27;0.73;;;21.40;71.80;;;;;;4938724;29;20454;-87
2023/04/24 02:42:38;;;;;;;1.27;0.77;;;21.40;71.80;;;;;;4938678;29;20443;-86
2023/04/24 02:45:06;;;;;;;1.10;0.80;;;21.40;71.90;;;;;;4938733;29;20453;-86
2023/04/24 02:47:33;;;;;;;1.07;0.80;;;21.40;71.80;;;;;;4938168;29;20956;-86
2023/04/24 02:50:01;;;;;;;1.00;0.80;;;21.50;71.80;;;;;;4938521;29;20490;-86
2023/04/24 02:52:28;;;;;;;1.10;0.77;;;21.40;71.90;;;;;;4938593;29;20450;-87
2023/04/24 02:54:54;;;;;;;1.00;0.70;;;21.30;71.70;;;;;;4938554;29;20844;-87
2023/04/24 02:57:21;;;;;;;1.70;0.90;;;21.30;71.70;;;;;;4938445;29;20447;-89
2023/04/24 02:59:48;;;;;;;1.00;0.70;;;21.30;71.70;;;;;;4938312;29;20442;-86
2023/04/24 03:02:15;;;;;;;1.00;0.77;;;21.30;71.70;;;;;;4938351;29;20473;-87
2023/04/24 03:04:45;;;;;;;1.00;0.70;;;21.30;71.80;;;;;;4919254;29;20460;-87
2023/04/24 03:07:14;;;;;;;1.00;0.70;;;21.30;71.80;;;;;;4918957;29;20562;-86
2023/04/24 03:09:41;;;;;;;0.93;0.63;;;21.50;72.00;;;;;;4919192;29;20488;-86
2023/04/24 03:12:08;;;;;;;1.00;0.70;;;21.30;71.70;;;;;;4902418;29;20488;-87
2023/04/24 03:14:35;;;;;;;1.10;0.90;;;21.30;71.70;;;;;;4919227;29;20511;-86
2023/04/24 03:17:02;;;;;;;1.07;0.80;;;21.30;71.70;;;;;;4902063;29;20452;-86
2023/04/24 03:19:29;;;;;;;1.00;0.70;;;21.30;71.70;;;;;;4919180;29;20451;-87
2023/04/24 03:21:56;;;;;;;1.00;0.90;;;21.30;71.70;;;;;;4919054;29;20444;-86
2023/04/24 03:24:24;;;;;;;1.00;0.80;;;21.30;71.70;;;;;;4918965;29;20982;-87
2023/04/24 03:26:51;;;;;;;1.13;0.97;;;21.30;71.70;;;;;;4918984;29;20515;-88
2023/04/24 03:29:18;;;;;;;1.10;0.80;;;21.30;71.70;;;;;;4901914;29;20607;-87
2023/04/24 03:31:45;;;;;;;1.17;0.87;;;21.30;71.70;;;;;;4918787;29;20454;-87
2023/04/24 03:34:12;;;;;;;1.00;0.70;;;21.30;71.70;;;;;;4918832;29;20451;-87
2023/04/24 03:36:39;;;;;;;1.20;0.90;;;21.30;71.70;;;;;;4918761;29;20444;-86
2023/04/24 03:39:06;;;;;;;1.10;0.90;;;21.30;71.70;;;;;;4918562;29;20456;-87
2023/04/24 03:41:35;;;;;;;1.40;0.77;;;21.30;71.80;;;;;;4918699;29;20532;-87
2023/04/24 03:44:02;;;;;;;1.00;0.70;;;21.30;71.80;;;;;;4901955;29;20805;-86
2023/04/24 03:46:28;;;;;;;1.00;0.80;;;21.30;71.60;;;;;;4918369;29;20455;-87
2023/04/24 03:48:55;;;;;;;1.10;0.80;;;21.30;71.60;;;;;;4918487;29;20923;-86
2023/04/24 03:51:22;;;;;;;1.00;0.80;;;21.30;71.60;;;;;;4918324;29;20474;-86
2023/04/24 03:53:49;;;;;;;1.30;1.00;;;21.30;71.60;;;;;;4901740;29;20452;-87
2023/04/24 03:56:16;;;;;;;1.00;0.80;;;21.20;71.60;;;;;;4918329;29;20462;-87
2023/04/24 03:58:45;;;;;;;1.20;0.80;;;21.30;71.70;;;;;;4917800;29;20452;-86
2023/04/24 04:01:13;;;;;;;1.20;1.03;;;21.40;71.90;;;;;;4918329;29;20452;-86
2023/04/24 04:03:40;;;;;;;4.23;1.00;;;21.30;71.70;;;;;;4929011;29;20487;-87
2023/04/24 04:06:07;;;;;;;1.10;0.80;;;21.20;71.60;;;;;;4937058;29;20491;-86
2023/04/24 04:08:34;;;;;;;1.03;0.80;;;21.20;71.60;;;;;;4920189;29;20467;-86
2023/04/24 04:11:01;;;;;;;1.00;0.80;;;21.20;71.60;;;;;;4919866;29;20490;-86
2023/04/24 04:13:28;;;;;;;1.20;1.10;;;21.30;71.80;;;;;;4937004;29;20443;-87
2023/04/24 04:15:56;;;;;;;1.00;0.80;;;21.20;71.60;;;;;;4936922;29;20450;-87
2023/04/24 04:18:23;;;;;;;1.00;0.80;;;21.20;71.60;;;;;;4937080;29;20454;-87
2023/04/24 04:20:49;;;;;;;1.00;0.80;;;21.20;71.70;;;;;;4936813;29;21050;-87
2023/04/24 04:23:16;;;;;;;1.20;0.80;;;21.20;71.50;;;;;;4936965;29;20438;-86
2023/04/24 04:25:44;;;;;;;1.27;1.00;;;21.20;71.60;;;;;;4936920;29;20533;-87
2023/04/24 04:28:11;;;;;;;1.00;0.90;;;21.20;71.60;;;;;;4936858;29;20469;-88
2023/04/24 04:30:38;;;;;;;1.27;1.17;;;21.20;71.60;;;;;;4936899;29;20494;-87
2023/04/24 04:33:06;;;;;;;1.37;1.10;;;21.20;71.60;;;;;;4936776;29;20451;-87
2023/04/24 04:35:33;;;;;;;1.20;0.93;;;21.20;71.60;;;;;;4936609;29;20439;-87
2023/04/24 04:38:00;;;;;;;1.80;1.10;;;21.20;71.60;;;;;;4936549;29;20462;-86
2023/04/24 04:40:27;;;;;;;1.10;0.97;;;21.20;71.60;;;;;;4936563;29;20855;-90
2023/04/24 04:42:54;;;;;;;1.10;0.90;;;21.20;71.60;;;;;;4936663;29;20870;-86
2023/04/24 04:45:21;;;;;;;1.30;1.00;;;21.20;71.60;;;;;;4936499;29;20453;-85
2023/04/24 04:47:48;;;;;;;1.00;0.80;;;21.30;71.80;;;;;;4936304;29;20934;-85
2023/04/24 04:50:19;;;;;;;1.10;0.90;;;21.20;71.70;;;;;;4936406;29;20500;-85
2023/04/24 04:52:46;;;;;;;1.10;1.00;;;21.20;71.70;;;;;;4936530;29;20860;-89
2023/04/24 04:55:13;;;;;;;1.20;1.00;;;21.20;71.60;;;;;;4936419;29;20442;-86
2023/04/24 04:57:40;;;;;;;1.10;1.00;;;21.20;71.70;;;;;;4936233;29;20442;-85
2023/04/24 05:00:10;;;;;;;1.10;1.00;;;21.20;71.60;;;;;;4936374;29;20458;-88
2023/04/24 05:02:37;;;;;;;1.50;0.90;;;21.20;71.60;;;;;;4936050;29;20482;-85
2023/04/24 05:05:04;;;;;;;1.30;1.00;;;21.20;71.60;;;;;;4936476;29;20450;-86
2023/04/24 05:07:32;;;;;;;1.20;1.07;;;21.20;71.50;;;;;;4936021;29;20826;-86
2023/04/24 05:09:59;;;;;;;2.03;0.90;;;21.20;71.60;;;;;;4935284;29;20493;-89
2023/04/24 05:12:26;;;;;;;1.10;0.90;;;21.20;71.60;;;;;;4936120;29;20803;-85
2023/04/24 05:14:53;;;;;;;1.10;0.97;;;21.20;71.60;;;;;;4936130;29;20459;-86
2023/04/24 05:17:20;;;;;;;1.00;0.90;;;21.20;71.60;;;;;;4935724;29;20454;-85
2023/04/24 05:19:47;;;;;;;1.20;0.90;;;21.20;71.50;;;;;;4936001;29;20450;-86
2023/04/24 05:22:14;;;;;;;1.10;0.87;;;21.20;71.60;;;;;;4936131;29;20453;-85
2023/04/24 05:24:43;;;;;;;1.27;0.97;;;21.20;71.60;;;;;;4944123;29;20438;-86
2023/04/24 05:27:10;;;;;;;1.10;0.90;;;21.20;72.40;;;;;;4954711;29;20474;-87
2023/04/24 05:29:37;;;;;;;4.70;1.10;;;21.20;71.50;;;;;;4942813;29;20534;-87
2023/04/24 05:32:04;;;;;;;1.00;0.80;;;21.20;71.40;;;;;;4918908;29;20455;-87
2023/04/24 05:34:30;;;;;;;1.20;1.10;;;21.20;71.60;;;;;;4935987;29;20466;-87
2023/04/24 05:36:57;;;;;;;1.10;0.93;;;21.20;71.40;;;;;;4936013;29;21014;-85
2023/04/24 05:39:24;;;;;;;1.30;0.90;;;21.40;71.60;;;;;;4935925;29;20533;-88
2023/04/24 05:41:53;;;;;;;1.40;1.17;;;21.20;71.60;;;;;;4935891;29;20454;-87
2023/04/24 05:44:20;;;;;;;1.30;1.17;;;21.20;71.40;;;;;;4935884;29;20447;-88
2023/04/24 05:46:46;;;;;;;1.10;0.97;;;21.20;71.40;;;;;;4936647;29;20882;-86
2023/04/24 05:49:13;;;;;;;1.10;0.90;;;21.20;71.60;;;;;;4936029;29;20452;-87
2023/04/24 05:51:41;;;;;;;1.60;1.10;;;21.20;71.60;;;;;;4935896;29;20486;-87
2023/04/24 05:54:07;;;;;;;1.30;0.93;;;21.20;71.70;;;;;;4936199;29;20469;-89
2023/04/24 05:56:35;;;;;;;1.30;1.00;;;21.40;72.00;;;;;;4936052;29;20477;-86
2023/04/24 05:59:03;;;;;;;1.20;1.10;;;21.30;71.50;;;;;;4936117;29;20203;-88
2023/04/24 06:01:31;;;;;;;1.10;0.90;;;21.30;71.20;;;;;;4935960;29;20459;-86
2023/04/24 06:03:58;;;;;;;1.20;1.10;;;21.30;71.70;;;;;;4935882;29;20478;-82
2023/04/24 06:06:25;;;;;;;1.17;1.07;;;21.30;71.70;;;;;;4919154;29;20443;-87
2023/04/24 06:08:53;;;;;;;1.10;1.00;;;21.30;71.50;;;;;;4936054;29;20471;-87
2023/04/24 06:11:20;;;;;;;1.47;1.30;;;21.30;71.90;;;;;;4935912;29;20494;-87
2023/04/24 06:13:46;;;;;;;1.17;0.90;;;21.30;72.00;;;;;;4935777;29;20498;-87
2023/04/24 06:16:15;;;;;;;1.53;1.03;;;21.30;72.10;;;;;;4935815;29;20447;-90
2023/04/24 06:18:42;;;;;;;3.20;1.50;;;21.20;72.10;;;;;;4935942;29;20812;-87
2023/04/24 06:21:09;;;;;;;1.20;1.00;;;21.30;72.30;;;;;;4936871;29;20455;-87
2023/04/24 06:23:36;;;;;;;1.57;1.00;;;21.20;72.20;;;;;;4939357;29;20458;-88
2023/04/24 06:26:02;;;;;;;1.30;0.93;;;21.20;72.30;;;;;;4939052;29;20452;-87
2023/04/24 06:28:29;;;;;;;1.00;0.87;;;21.30;73.20;;;;;;4939075;29;20976;-87
2023/04/24 06:30:56;;;;;;;1.70;0.90;;;21.20;72.30;;;;;;4939342;29;20865;-87
2023/04/24 06:33:25;;;;;;;1.73;1.00;;;21.30;72.30;;;;;;4939179;29;20498;-87
2023/04/24 06:35:51;;;;;;;1.40;1.30;;;21.30;72.50;;;;;;4938927;29;20531;-88
2023/04/24 06:38:18;;;;;;;1.20;1.00;;;21.30;72.80;;;;;;4939078;29;20461;-91
2023/04/24 06:40:45;;;;;;;1.30;1.20;;;21.30;72.40;;;;;;4939202;29;20454;-87
2023/04/24 06:43:12;;;;;;;2.17;1.03;;;21.30;72.30;;;;;;4939017;29;20449;-87
2023/04/24 06:45:39;;;;;;;1.47;1.20;;;21.30;72.40;;;;;;4938870;29;20450;-89
2023/04/24 06:48:06;;;;;;;1.73;1.43;;;21.30;72.60;;;;;;4939052;29;20450;-89
2023/04/24 06:50:35;;;;;;;1.43;1.10;;;21.30;72.50;;;;;;4938806;29;20487;-87
2023/04/24 06:53:01;;;;;;;1.50;1.00;;;21.30;72.40;;;;;;4938999;29;20463;-87
2023/04/24 06:55:28;;;;;;;1.47;1.10;;;21.30;72.40;;;;;;4938506;29;20942;-89
2023/04/24 06:57:55;;;;;;;1.77;1.07;;;21.30;72.40;;;;;;4939304;29;20442;-87
2023/04/24 07:00:23;;;;;;;1.60;1.23;;;21.30;72.40;;;;;;4938543;29;20961;-87
2023/04/24 07:02:50;;;;;;;1.67;1.20;;;21.30;72.40;;;;;;4938466;29;20483;-87
2023/04/24 07:05:19;;;;;;;1.30;1.20;;;21.30;72.60;;;;;;4938785;29;20854;-87
2023/04/24 07:07:49;;;;;;;2.17;1.10;;;21.30;72.30;;;;;;4938823;29;20475;-88
2023/04/24 07:10:16;;;;;;;1.73;1.63;;;21.40;72.30;;;;;;4937020;29;20451;-91
2023/04/24 07:12:44;;;;;;;2.40;0.90;;;21.30;71.10;;;;;;4939120;29;20446;-88
2023/04/24 07:15:11;;;;;;;3.40;1.20;;;21.30;71.40;;;;;;4938697;29;20535;-86
2023/04/24 07:17:42;;;;;;;1.13;1.00;;;21.30;72.30;;;;;;4938886;29;20447;-92
2023/04/24 07:20:20;;;;;;;4.03;1.23;;;21.30;72.30;;;;;;4939971;29;20470;-91
2023/04/24 07:22:49;;;;;;;2.57;1.37;;;21.30;71.90;;;;;;4945955;28;20545;-90
2023/04/24 07:25:16;;;;;;;1.77;1.60;;;21.30;72.00;;;;;;4942140;29;20786;-90
2023/04/24 07:27:42;;;;;;;3.20;1.80;;;21.30;71.20;;;;;;4938414;29;20538;-90
2023/04/24 07:30:10;;;;;;;8.30;3.43;;;21.30;70.40;;;;;;4942099;29;20455;-90
2023/04/24 07:32:37;;;;;;;7.13;2.47;;;21.20;70.00;;;;;;4945054;28;20429;-95
2023/04/24 07:35:04;;;;;;;6.17;2.20;;;21.20;70.00;;;;;;4946720;29;20589;-92
2023/04/24 07:37:31;;;;;;;7.00;2.57;;;21.20;70.40;;;;;;4930512;29;20483;-92
2023/04/24 07:40:00;;;;;;;6.10;2.73;;;21.30;71.20;;;;;;4919749;29;20538;-91
2023/04/24 07:42:26;;;;;;;5.07;2.50;;;21.20;71.40;;;;;;4919453;29;20447;-89
2023/04/24 07:45:16;;;;;;;3.20;1.97;;;21.20;71.50;;;;;;4919344;29;20962;-91
2023/04/24 07:47:45;;;;;;;8.50;2.47;;;21.20;72.30;;;;;;4919332;29;20451;-88
2023/04/24 07:50:13;;;;;;;2.60;1.83;;;21.20;72.40;;;;;;4919251;29;20455;-95
2023/04/24 07:52:40;;;;;;;3.07;2.20;;;21.30;71.90;;;;;;4919979;29;20448;-95
2023/04/24 07:55:08;;;;;;;2.33;1.90;;;21.20;72.40;;;;;;4919746;29;20451;-91
2023/04/24 07:57:35;;;;;;;1.90;1.70;;;21.20;72.60;;;;;;4933457;29;20443;-86
2023/04/24 08:00:03;;;;;;;3.30;1.70;;;21.30;72.20;;;;;;4938183;29;20502;-92
2023/04/24 08:02:30;;;;;;;7.50;1.90;;;21.30;72.10;;;;;;4937951;29;20450;-88
2023/04/24 08:04:58;;;;;;;3.83;1.73;;;21.30;72.30;;;;;;4937911;29;20496;-90
2023/04/24 08:07:50;;;;;;;5.73;1.87;;;21.30;71.80;;;;;;4937607;29;20533;-91
2023/04/24 08:11:09;;;;;;;8.10;1.63;;;21.30;72.50;;;;;;4935999;29;20453;-92
2023/04/24 08:13:38;;;;;;;4.13;1.67;;;21.30;72.30;;;;;;4918709;29;20531;-89
2023/04/24 08:16:07;;;;;;;3.33;1.53;;;21.30;72.30;;;;;;4918628;29;20444;-90
2023/04/24 08:18:35;;;;;;;3.80;1.87;;;21.30;72.30;;;;;;4918071;29;20467;-82
2023/04/24 08:21:02;;;;;;;1.50;1.40;;;21.30;72.30;;;;;;4919040;29;20452;-81
2023/04/24 08:23:29;;;;;;;4.43;1.77;;;21.30;71.90;;;;;;4919688;29;20975;-82
2023/04/24 08:25:57;;;;;;;2.90;1.70;;;21.20;71.20;;;;;;4923408;29;20489;-83
2023/04/24 08:28:26;;;;;;;3.90;1.70;;;21.20;71.30;;;;;;4929207;29;20459;-84
2023/04/24 08:30:55;;;;;;;3.13;1.37;;;21.30;70.60;;;;;;4937710;29;20489;-85
2023/04/24 08:33:22;;;;;;;2.20;1.37;;;21.30;70.40;;;;;;4938162;29;20475;-84
2023/04/24 08:35:49;;;;;;;1.60;1.37;;;21.20;69.60;;;;;;4922179;29;20464;-83
2023/04/24 08:38:16;;;;;;;2.40;1.43;;;21.20;69.10;;;;;;4918284;29;20460;-83
2023/04/24 08:40:45;;;;;;;3.90;1.77;;;21.20;69.70;;;;;;4917971;29;20480;-83
2023/04/24 08:43:14;;;;;;;8.30;1.50;;;21.30;68.80;;;;;;4918114;29;20447;-84
2023/04/24 08:45:41;;;;;;;2.83;1.40;;;21.10;68.10;;;;;;4918385;29;20449;-85
2023/04/24 08:48:10;;;;;;;4.80;2.07;;;21.20;68.40;;;;;;4946486;29;20438;-81
2023/04/24 08:50:38;;;;;;;3.37;2.27;;;21.20;70.10;;;;;;4955203;29;20449;-87
2023/04/24 08:53:05;;;;;;;3.40;2.10;;;21.10;70.30;;;;;;4938544;29;20504;-86
2023/04/24 08:55:33;;;;;;;2.27;1.80;;;21.20;70.70;;;;;;4955761;29;20455;-86
2023/04/24 08:58:02;;;;;;;2.70;1.70;;;21.20;70.90;;;;;;4955904;29;20442;-87
2023/04/24 09:00:29;;;;;;;3.20;1.83;;;21.20;71.10;;;;;;4955654;29;20450;-85
2023/04/24 09:02:57;;;;;;;2.90;1.93;;;21.20;71.10;;;;;;4955793;29;20572;-85
2023/04/24 09:05:25;;;;;;;3.03;1.50;;;21.20;71.30;;;;;;4955777;29;20456;-85
2023/04/24 09:07:56;;;;;;;4.33;1.67;;;21.20;71.30;;;;;;4955605;28;20836;-85
2023/04/24 09:10:24;;;;;;;2.57;1.60;;;21.20;71.40;;;;;;4955745;29;20512;-85
2023/04/24 09:12:51;;;;;;;4.27;1.67;;;21.20;71.60;;;;;;4955403;29;20500;-88
2023/04/24 09:15:20;;;;;;;4.00;2.30;;;21.20;71.80;;;;;;4955553;29;20465;-85
2023/04/24 09:17:47;;;;;;;2.60;1.70;;;21.20;71.80;;;;;;4938336;29;20453;-85
2023/04/24 09:20:14;;;;;;;2.33;1.80;;;21.20;71.80;;;;;;4955733;29;20819;-87
2023/04/24 09:22:43;;;;;;;3.87;2.10;;;21.20;71.90;;;;;;4955526;29;20972;-87
2023/04/24 09:25:12;;;;;;;3.07;1.90;;;21.20;72.00;;;;;;4955655;29;20449;-87
2023/04/24 09:27:43;;;;;;;2.40;1.53;;;21.20;71.90;;;;;;4955191;29;20941;-87
2023/04/24 09:30:11;;;;;;;4.20;1.80;;;21.20;72.10;;;;;;4955539;29;20501;-88
2023/04/24 09:32:38;;;;;;;5.30;1.77;;;21.20;72.00;;;;;;4955445;29;20501;-85
2023/04/24 09:35:09;;;;;;;3.80;1.93;;;21.20;72.10;;;;;;4955486;29;20450;-87
2023/04/24 09:37:38;;;;;;;2.83;1.90;;;21.20;72.10;;;;;;4955244;28;20468;-88
2023/04/24 09:43:31;;;;;;;2.23;1.63;;;21.20;72.10;;;;;;5673770;23;20478;-90
2023/04/24 09:46:04;;;;;;;3.57;1.70;;;21.20;72.10;;;;;;4938654;29;20491;-88
2023/04/24 09:48:32;;;;;;;3.80;1.80;;;21.30;72.40;;;;;;4939785;29;20442;-88
2023/04/24 09:51:01;;;;;;;2.47;1.93;;;21.20;72.40;;;;;;4938964;29;20948;-90
2023/04/24 09:53:28;;;;;;;2.20;2.00;;;21.20;72.40;;;;;;4938468;29;20461;-88
2023/04/24 09:55:55;;;;;;;2.60;2.00;;;21.20;72.50;;;;;;4940041;29;20934;-88
2023/04/24 09:58:26;;;;;;;2.57;1.83;;;21.20;72.50;;;;;;4943405;29;20537;-88
2023/04/24 10:00:56;;;;;;;3.53;2.23;;;21.20;72.70;;;;;;4941013;29;20462;-88
2023/04/24 10:03:26;;;;;;;2.30;1.70;;;21.20;72.60;;;;;;4941519;29;20458;-88
2023/04/24 10:05:54;;;;;;;2.23;1.83;;;21.20;72.70;;;;;;4923742;29;20455;-88
2023/04/24 10:08:22;;;;;;;1.70;1.33;;;21.30;72.70;;;;;;4940516;29;20530;-88
2023/04/24 10:10:48;;;;;;;2.73;1.40;;;21.20;72.70;;;;;;4939849;29;20455;-88
2023/04/24 10:13:16;;;;;;;2.10;1.60;;;21.20;72.70;;;;;;4940521;29;20581;-90
2023/04/24 10:15:43;;;;;;;1.80;1.53;;;21.20;72.70;;;;;;4941478;29;20445;-88
2023/04/24 10:18:10;;;;;;;2.20;1.60;;;21.10;72.50;;;;;;4944041;29;20461;-88
2023/04/24 10:20:41;;;;;;;2.43;1.63;;;21.10;72.90;;;;;;4929697;29;20438;-88
2023/04/24 10:23:08;;;;;;;1.87;1.40;;;21.20;72.80;;;;;;4948542;29;20439;-89
2023/04/24 10:25:36;;;;;;;2.60;1.50;;;21.20;72.80;;;;;;4947828;29;21022;-88
2023/04/24 10:28:04;;;;;;;2.10;1.50;;;21.10;72.70;;;;;;4945441;29;20438;-88
2023/04/24 10:30:34;;;;;;;3.40;2.13;;;21.10;72.80;;;;;;4946302;29;20461;-89
2023/04/24 10:33:02;;;;;;;2.10;1.80;;;21.10;72.60;;;;;;4947014;29;20573;-88
2023/04/24 10:35:32;;;;;;;1.97;1.20;;;21.10;72.70;;;;;;4929973;29;20447;-89
2023/04/24 10:38:04;;;;;;;3.30;1.80;;;21.20;72.80;;;;;;4942064;29;20455;-88
2023/04/24 10:40:33;;;;;;;1.77;1.43;;;21.10;72.60;;;;;;4923573;29;20455;-88
2023/04/24 10:43:03;;;;;;;2.00;1.70;;;21.10;72.60;;;;;;4939422;29;20451;-88
2023/04/24 10:45:30;;;;;;;1.83;1.70;;;21.10;72.70;;;;;;4939479;29;20573;-85
2023/04/24 10:48:01;;;;;;;2.70;1.80;;;21.20;72.80;;;;;;4939147;29;20535;-89
2023/04/24 10:50:30;;;;;;;2.77;1.60;;;21.10;72.50;;;;;;4939146;29;20450;-88
2023/04/24 10:53:09;;;;;;;2.50;1.80;;;21.30;72.60;;;;;;4937627;29;20487;-89
2023/04/24 10:55:47;;;;;;;2.23;1.60;;;21.20;72.50;;;;;;4938832;29;20794;-88
2023/04/24 10:58:16;;;;;;;2.00;1.43;;;21.20;72.50;;;;;;4938834;29;20446;-89
2023/04/24 11:00:44;;;;;;;3.23;2.30;;;21.20;72.80;;;;;;4938625;29;20450;-89
2023/04/24 11:03:25;;;;;;;2.20;2.00;;;21.20;72.80;;;;;;4921807;29;20449;-89
2023/04/24 11:06:04;;;;;;;6.17;1.77;;;21.20;72.80;;;;;;4920751;29;20447;-89
2023/04/24 11:08:37;;;;;;;2.43;1.60;;;21.20;72.80;;;;;;4918597;29;20450;-90
2023/04/24 11:11:10;;;;;;;3.20;1.67;;;21.20;72.90;;;;;;4920146;29;20451;-89
2023/04/24 11:14:07;;;;;;;6.90;2.10;;;21.10;73.00;;;;;;4919779;29;20495;-90
2023/04/24 11:16:37;;;;;;;3.20;1.70;;;21.20;72.50;;;;;;4937275;29;20454;-90
2023/04/24 11:19:07;;;;;;;2.60;2.10;;;21.20;72.60;;;;;;4937106;29;21000;-90
2023/04/24 11:21:41;;;;;;;4.10;1.93;;;21.10;72.70;;;;;;4938025;29;20454;-92
2023/04/24 11:24:39;;;;;;;3.03;1.70;;;21.10;72.90;;;;;;4938803;29;20440;-93
2023/04/24 11:27:13;;;;;;;6.43;1.90;;;21.20;72.30;;;;;;4939278;29;20576;-95
2023/04/24 11:29:43;;;;;;;3.53;1.60;;;21.20;72.90;;;;;;4938988;29;20446;-93
2023/04/24 11:32:25;;;;;;;3.50;1.57;;;21.10;72.60;;;;;;4939697;29;20863;-91
2023/04/24 11:34:54;;;;;;;5.27;1.80;;;21.20;72.80;;;;;;4940321;29;20525;-90
2023/04/24 11:37:22;;;;;;;4.27;1.93;;;21.20;72.80;;;;;;4939408;29;20455;-90
2023/04/24 11:39:54;;;;;;;3.10;1.70;;;21.20;72.50;;;;;;4939177;29;20502;-93
2023/04/24 11:42:23;;;;;;;2.47;1.60;;;21.20;72.70;;;;;;4939263;29;20523;-93
2023/04/24 11:44:51;;;;;;;3.70;2.00;;;21.30;72.90;;;;;;4938534;29;20980;-92
2023/04/24 11:47:18;;;;;;;3.50;1.43;;;21.20;72.60;;;;;;4939097;29;20439;-92
2023/04/24 11:49:44;;;;;;;4.40;2.77;;;21.20;72.60;;;;;;4939344;29;20486;-90
2023/04/24 11:52:12;;;;;;;2.27;1.63;;;21.20;72.50;;;;;;4939159;29;20490;-91
2023/04/24 11:54:39;;;;;;;2.77;1.83;;;21.20;72.40;;;;;;4939240;29;20443;-89
2023/04/24 11:57:10;;;;;;;4.53;2.10;;;21.20;72.60;;;;;;4938138;29;20452;-89
2023/04/24 11:59:38;;;;;;;3.30;1.97;;;21.20;72.60;;;;;;4938470;29;20989;-91
2023/04/24 12:02:05;;;;;;;7.70;1.87;;;21.20;72.90;;;;;;4937976;29;20518;-91
2023/04/24 12:04:44;;;;;;;2.30;2.00;;;21.20;72.20;;;;;;4944840;29;20455;-89
2023/04/24 12:07:11;;;;;;;10.90;2.10;;;21.20;72.80;;;;;;4939468;29;20447;-88
2023/04/24 12:09:47;;;;;;;2.07;1.60;;;21.20;73.00;;;;;;4937956;29;20462;-90
2023/04/24 12:12:16;;;;;;;3.73;1.73;;;21.20;74.00;;;;;;4938364;29;20490;-89
2023/04/24 12:14:50;;;;;;;3.60;1.90;;;21.20;73.20;;;;;;4937782;29;20453;-91
2023/04/24 12:17:17;;;;;;;5.73;2.20;;;21.20;73.20;;;;;;4937700;29;20445;-90
2023/04/24 12:19:48;;;;;;;5.43;2.00;;;21.20;73.20;;;;;;4937713;29;20443;-88
2023/04/24 12:22:15;;;;;;;2.00;1.80;;;21.40;73.20;;;;;;4938042;29;20455;-91
2023/04/24 12:25:00;;;;;;;2.63;2.10;;;21.30;72.80;;;;;;4937749;29;20541;-88
2023/04/24 12:27:31;;;;;;;7.23;1.70;;;21.20;72.60;;;;;;4938268;29;20439;-91
2023/04/24 12:29:59;;;;;;;4.47;1.70;;;21.30;72.70;;;;;;4938031;29;20430;-90
2023/04/24 12:32:26;;;;;;;3.20;1.70;;;21.30;72.50;;;;;;4938225;29;20505;-89
2023/04/24 12:34:54;;;;;;;2.80;1.60;;;21.30;72.30;;;;;;4942480;29;20547;-88
2023/04/24 12:37:22;;;;;;;2.33;1.83;;;21.30;72.30;;;;;;4939974;29;20451;-92
2023/04/24 12:40:03;;;;;;;4.40;2.40;;;21.30;72.40;;;;;;4937297;29;20483;-91
2023/04/24 12:42:32;;;;;;;3.30;2.20;;;21.30;71.70;;;;;;4938117;29;20540;-92
2023/04/24 12:45:00;;;;;;;4.53;2.70;;;21.30;71.20;;;;;;4936927;29;20997;-93
2023/04/24 12:47:28;;;;;;;2.50;2.13;;;21.20;71.30;;;;;;4937419;29;20477;-93
2023/04/24 12:49:55;;;;;;;2.57;1.90;;;21.30;72.50;;;;;;4937100;29;20458;-90
2023/04/24 12:52:23;;;;;;;5.70;2.20;;;21.20;72.60;;;;;;4938114;29;20884;-92
2023/04/24 12:54:53;;;;;;;3.63;2.30;;;21.20;72.30;;;;;;4936890;29;20490;-90
2023/04/24 12:57:20;;;;;;;3.90;1.90;;;21.30;72.50;;;;;;4937434;29;20447;-91